createdAt,value
2019-05-07T00:01:12.299Z,101132.52
2019-05-07T00:03:45.865Z,101134.72
2019-05-07T00:06:19.357Z,101126.07
2019-05-07T00:08:52.863Z,101124.75
2019-05-07T00:11:26.339Z,101129.03
2019-05-07T00:13:59.719Z,101128.14
2019-05-07T00:16:33.128Z,101125.55
2019-05-07T00:19:06.596Z,101122.98
2019-05-07T00:21:42.102Z,101115.95
2019-05-07T00:24:15.123Z,101121.94
2019-05-07T00:26:48.556Z,101117.95
2019-05-07T00:29:22.522Z,101123.52
2019-05-07T00:31:55.954Z,101122.70
2019-05-07T00:34:32.797Z,101116.59
2019-05-07T00:37:07.798Z,101118.33
2019-05-07T00:39:45.546Z,101119.61
2019-05-07T00:42:22.052Z,101114.52
2019-05-07T00:44:57.302Z,101107.66
2019-05-07T00:47:32.801Z,101106.83
2019-05-07T00:50:08.804Z,101109.02
2019-05-07T00:52:42.970Z,101107.28
2019-05-07T00:55:16.638Z,101099.91
2019-05-07T00:57:50.054Z,101097.39
2019-05-07T01:00:23.524Z,101100.88
2019-05-07T01:02:56.944Z,101097.87
2019-05-07T01:05:32.455Z,101093.95
2019-05-07T01:08:05.622Z,101093.12
2019-05-07T01:10:39.019Z,101086.97
2019-05-07T01:13:12.771Z,101090.04
2019-05-07T01:15:46.312Z,101083.48
2019-05-07T01:18:19.735Z,101089.11
2019-05-07T01:20:53.507Z,101085.57
2019-05-07T01:23:26.926Z,101089.83
2019-05-07T01:26:00.394Z,101082.44
2019-05-07T01:28:52.861Z,101084.98
2019-05-07T01:31:29.474Z,101084.08
2019-05-07T01:34:07.543Z,101083.22
2019-05-07T01:36:42.736Z,101079.77
2019-05-07T01:39:16.225Z,101080.72
2019-05-07T01:41:49.621Z,101081.60
2019-05-07T01:44:23.025Z,101082.44
2019-05-07T01:46:56.413Z,101079.83
2019-05-07T01:49:29.815Z,101075.91
2019-05-07T01:52:03.213Z,101079.88
2019-05-07T01:54:36.637Z,101077.31
2019-05-07T01:57:12.112Z,101077.27
2019-05-07T01:59:45.209Z,101085.34
2019-05-07T02:02:23.305Z,101086.09
2019-05-07T02:05:07.156Z,101078.70
2019-05-07T02:07:42.921Z,101081.73
2019-05-07T02:10:24.298Z,101080.90
2019-05-07T02:12:57.691Z,101081.84
2019-05-07T02:15:32.308Z,101075.75
2019-05-07T02:18:05.789Z,101079.17
2019-05-07T02:20:39.216Z,101080.30
2019-05-07T02:23:12.919Z,101071.17
2019-05-07T02:25:46.401Z,101081.59
2019-05-07T02:28:19.795Z,101075.73
2019-05-07T02:30:53.601Z,101076.33
2019-05-07T02:33:27.081Z,101071.48
2019-05-07T02:36:02.983Z,101077.74
2019-05-07T02:38:53.446Z,101082.53
2019-05-07T02:41:28.501Z,101079.06
2019-05-07T02:44:04.285Z,101072.97
2019-05-07T02:46:54.061Z,101076.70
2019-05-07T02:49:32.716Z,101070.91
2019-05-07T02:52:13.389Z,101068.33
2019-05-07T02:55:04.320Z,101068.91
2019-05-07T02:57:37.819Z,101078.00
2019-05-07T03:00:14.606Z,101078.33
2019-05-07T03:02:47.081Z,101079.05
2019-05-07T03:05:22.966Z,101077.77
2019-05-07T03:07:55.700Z,101080.67
2019-05-07T03:10:29.176Z,101086.18
2019-05-07T03:13:03.165Z,101087.52
2019-05-07T03:15:36.930Z,101086.05
2019-05-07T03:18:13.486Z,101093.02
2019-05-07T03:20:53.264Z,101086.94
2019-05-07T03:23:29.681Z,101094.42
2019-05-07T03:26:07.704Z,101090.20
2019-05-07T03:28:53.565Z,101094.19
2019-05-07T03:31:37.606Z,101083.84
2019-05-07T03:34:18.460Z,101086.78
2019-05-07T03:36:56.571Z,101087.33
2019-05-07T03:39:28.674Z,101082.71
2019-05-07T03:42:03.371Z,101084.47
2019-05-07T03:44:38.627Z,101092.19
2019-05-07T03:47:16.189Z,101091.23
2019-05-07T03:49:49.668Z,101088.58
2019-05-07T03:52:24.476Z,101089.39
2019-05-07T03:54:58.106Z,101088.09
2019-05-07T03:57:33.304Z,101089.45
2019-05-07T04:00:08.786Z,101090.49
2019-05-07T04:02:43.781Z,101094.87
2019-05-07T04:05:17.574Z,101092.07
2019-05-07T04:07:53.722Z,101083.27
2019-05-07T04:10:26.246Z,101085.46
2019-05-07T04:12:59.664Z,101092.94
2019-05-07T04:15:33.341Z,101088.17
2019-05-07T04:18:06.769Z,101095.46
2019-05-07T04:20:43.182Z,101082.94
2019-05-07T04:23:15.315Z,101087.81
2019-05-07T04:25:53.222Z,101089.47
2019-05-07T04:28:28.212Z,101095.57
2019-05-07T04:31:03.515Z,101092.81
2019-05-07T04:33:38.647Z,101097.73
2019-05-07T04:36:14.311Z,101095.62
2019-05-07T04:38:47.886Z,101090.69
2019-05-07T04:41:23.319Z,101096.42
2019-05-07T04:43:56.514Z,101090.97
2019-05-07T04:46:33.023Z,101092.38
2019-05-07T04:49:05.082Z,101099.91
2019-05-07T04:51:43.534Z,101095.22
2019-05-07T04:54:17.095Z,101097.42
2019-05-07T04:56:53.150Z,101090.44
2019-05-07T04:59:25.653Z,101092.83
2019-05-07T05:02:03.878Z,101099.84
2019-05-07T05:04:35.999Z,101097.36
2019-05-07T05:07:09.527Z,101093.50
2019-05-07T05:09:42.962Z,101096.53
2019-05-07T05:12:16.381Z,101086.45
2019-05-07T05:14:49.820Z,101090.18
2019-05-07T05:17:23.232Z,101092.38
2019-05-07T05:19:56.655Z,101095.92
2019-05-07T05:22:48.238Z,101097.66
2019-05-07T05:25:29.214Z,101095.82
2019-05-07T05:28:05.515Z,101096.66
2019-05-07T05:30:42.424Z,101091.90
2019-05-07T05:33:15.698Z,101096.34
2019-05-07T05:35:49.099Z,101093.48
2019-05-07T05:38:22.566Z,101094.10
2019-05-07T05:40:56.010Z,101093.77
2019-05-07T05:43:36.496Z,101088.04
2019-05-07T05:46:12.182Z,101088.59
2019-05-07T05:48:45.626Z,101091.63
2019-05-07T05:51:22.759Z,101090.41
2019-05-07T05:54:02.963Z,101086.62
2019-05-07T05:56:38.125Z,101094.11
2019-05-07T05:59:47.388Z,101092.98
2019-05-07T06:02:08.236Z,101095.84
2019-05-07T06:04:52.877Z,101088.15
2019-05-07T06:07:27.978Z,101087.36
2019-05-07T06:10:03.022Z,101091.79
2019-05-07T06:12:42.719Z,101091.37
2019-05-07T06:15:18.274Z,101087.08
2019-05-07T06:18:18.738Z,101086.20
2019-05-07T06:20:48.065Z,101088.52
2019-05-07T06:23:23.150Z,101087.73
2019-05-07T06:25:56.517Z,101092.39
2019-05-07T06:28:29.944Z,101097.16
2019-05-07T06:31:03.351Z,101086.31
2019-05-07T06:33:36.792Z,101099.41
2019-05-07T06:36:12.375Z,101092.98
2019-05-07T06:38:47.137Z,101097.33
2019-05-07T06:41:25.246Z,101087.75
2019-05-07T06:44:02.044Z,101087.75
2019-05-07T06:46:38.623Z,101087.69
2019-05-07T06:49:12.681Z,101083.61
2019-05-07T06:51:47.797Z,101082.16
2019-05-07T06:54:22.562Z,101080.50
2019-05-07T06:56:56.091Z,101078.54
2019-05-07T06:59:42.378Z,101085.36
2019-05-07T07:02:33.584Z,101075.25
2019-05-07T07:05:26.330Z,101076.36
2019-05-07T07:08:02.325Z,101072.48
2019-05-07T07:10:53.846Z,101070.26
2019-05-07T07:13:28.213Z,101070.67
2019-05-07T07:16:02.047Z,101063.98
2019-05-07T07:18:48.389Z,101063.66
2019-05-07T07:21:13.453Z,101070.58
2019-05-07T07:23:46.950Z,101068.69
2019-05-07T07:26:22.070Z,101069.85
2019-05-07T07:28:55.742Z,101064.77
2019-05-07T07:31:36.581Z,101059.73
2019-05-07T07:34:09.997Z,101065.35
2019-05-07T07:37:01.805Z,101064.14
2019-05-07T07:39:37.722Z,101064.11
2019-05-07T07:42:12.397Z,101058.13
2019-05-07T07:44:46.025Z,101059.03
2019-05-07T07:47:19.445Z,101053.86
2019-05-07T07:49:53.230Z,101058.50
2019-05-07T07:52:26.658Z,101054.70
2019-05-07T07:55:02.122Z,101054.80
2019-05-07T07:57:45.983Z,101048.88
2019-05-07T08:00:23.293Z,101043.37
2019-05-07T08:02:58.242Z,101046.37
2019-05-07T08:05:32.551Z,101041.63
2019-05-07T08:08:06.231Z,101035.84
2019-05-07T08:10:39.656Z,101039.48
2019-05-07T08:13:13.119Z,101041.42
2019-05-07T08:15:46.531Z,101021.67
2019-05-07T08:18:22.154Z,101021.67
2019-05-07T08:20:55.186Z,101032.42
2019-05-07T08:23:28.576Z,101023.48
2019-05-07T08:26:02.627Z,101021.03
2019-05-07T08:28:36.085Z,101014.86
2019-05-07T08:31:14.128Z,101012.85
2019-05-07T08:33:52.142Z,101011.33
2019-05-07T08:36:25.576Z,101011.79
2019-05-07T08:38:59.019Z,101007.25
2019-05-07T08:41:32.423Z,101012.95
2019-05-07T08:44:15.572Z,101007.02
2019-05-07T08:46:52.077Z,101006.14
2019-05-07T08:49:35.777Z,101006.48
2019-05-07T08:52:03.036Z,100999.97
2019-05-07T08:54:35.974Z,101001.08
2019-05-07T08:57:09.542Z,101000.66
2019-05-07T08:59:57.172Z,100991.05
2019-05-07T09:02:18.296Z,100983.64
2019-05-07T09:04:52.258Z,100983.64
2019-05-07T09:07:25.788Z,100990.34
2019-05-07T09:09:59.204Z,100973.25
2019-05-07T09:12:32.644Z,100973.25
2019-05-07T09:15:07.471Z,100981.45
2019-05-07T09:17:42.283Z,100982.83
2019-05-07T09:20:16.456Z,100977.69
2019-05-07T09:22:51.714Z,100969.48
2019-05-07T09:25:25.046Z,100967.81
2019-05-07T09:27:58.540Z,100962.28
2019-05-07T09:30:49.460Z,100962.28
2019-05-07T09:33:24.657Z,100956.78
2019-05-07T09:35:58.066Z,100952.20
2019-05-07T09:38:32.811Z,100952.16
2019-05-07T09:41:09.536Z,100950.58
2019-05-07T09:43:42.895Z,100952.98
2019-05-07T09:46:16.285Z,100958.16
2019-05-07T09:48:49.777Z,100950.81
2019-05-07T09:51:23.315Z,100949.28
2019-05-07T09:53:56.737Z,100941.23
2019-05-07T09:56:31.937Z,100934.72
2019-05-07T09:59:05.372Z,100938.86
2019-05-07T10:01:38.926Z,100936.17
2019-05-07T10:04:12.416Z,100936.17
2019-05-07T10:06:45.889Z,100935.64
2019-05-07T10:09:19.337Z,100935.86
2019-05-07T10:11:54.448Z,100926.91
2019-05-07T10:14:27.977Z,100933.39
2019-05-07T10:17:03.070Z,100927.06
2019-05-07T10:19:36.571Z,100929.45
2019-05-07T10:22:10.075Z,100927.11
2019-05-07T10:24:43.601Z,100926.47
2019-05-07T10:27:17.117Z,100926.75
2019-05-07T10:29:52.892Z,100922.27
2019-05-07T10:32:25.920Z,100922.84
2019-05-07T10:35:01.479Z,100915.52
2019-05-07T10:37:34.977Z,100917.60
2019-05-07T10:40:12.287Z,100915.58
2019-05-07T10:42:46.135Z,100910.89
2019-05-07T10:45:39.663Z,100910.41
2019-05-07T10:48:26.822Z,100912.83
2019-05-07T10:51:02.158Z,100908.98
2019-05-07T10:53:35.577Z,100903.27
2019-05-07T10:56:09.066Z,100891.55
2019-05-07T10:58:42.624Z,100902.23
2019-05-07T11:01:17.693Z,100900.52
2019-05-07T11:03:51.762Z,100899.42
2019-05-07T11:06:25.456Z,100893.67
2019-05-07T11:08:58.874Z,100890.08
2019-05-07T11:11:32.310Z,100890.08
2019-05-07T11:14:05.833Z,100886.33
2019-05-07T11:16:46.901Z,100886.33
2019-05-07T11:19:22.113Z,100887.73
2019-05-07T11:21:55.532Z,100877.86
2019-05-07T11:24:28.928Z,100868.45
2019-05-07T11:27:02.526Z,100868.45
2019-05-07T11:29:36.645Z,100859.38
2019-05-07T11:32:12.221Z,100859.38
2019-05-07T11:34:45.615Z,100860.95
2019-05-07T11:37:19.130Z,100854.00
2019-05-07T11:39:52.541Z,100850.09
2019-05-07T11:42:45.154Z,100848.59
2019-05-07T11:45:22.656Z,100848.99
2019-05-07T11:47:55.585Z,100838.70
2019-05-07T11:50:33.496Z,100834.97
2019-05-07T11:53:08.529Z,100828.82
2019-05-07T11:55:42.199Z,100828.82
2019-05-07T11:58:15.625Z,100827.11
2019-05-07T12:00:53.725Z,100821.17
2019-05-07T12:03:27.149Z,100821.17
2019-05-07T12:06:02.103Z,100824.36
2019-05-07T12:08:42.965Z,100823.10
2019-05-07T12:11:11.955Z,100820.02
2019-05-07T12:13:45.551Z,100817.16
2019-05-07T12:16:19.057Z,100810.89
2019-05-07T12:18:55.486Z,100815.52
2019-05-07T12:21:27.695Z,100804.64
2019-05-07T12:24:02.119Z,100798.85
2019-05-07T12:26:37.403Z,100801.20
2019-05-07T12:29:11.835Z,100802.58
2019-05-07T12:31:47.109Z,100803.64
2019-05-07T12:34:22.910Z,100795.20
2019-05-07T12:36:56.423Z,100788.09
2019-05-07T12:39:31.716Z,100788.09
2019-05-07T12:42:05.501Z,100790.86
2019-05-07T12:44:38.907Z,100785.59
2019-05-07T12:47:12.471Z,100779.47
2019-05-07T12:49:45.942Z,100776.93
2019-05-07T12:52:23.795Z,100764.38
2019-05-07T12:55:04.645Z,100778.12
2019-05-07T12:57:38.063Z,100767.11
2019-05-07T13:00:32.202Z,100783.02
2019-05-07T13:03:09.187Z,100779.64
2019-05-07T13:05:42.677Z,100758.74
2019-05-07T13:08:16.152Z,100758.74
2019-05-07T13:10:51.756Z,100753.78
2019-05-07T13:13:24.708Z,100749.73
2019-05-07T13:15:58.207Z,100749.73
2019-05-07T13:18:31.993Z,100747.78
2019-05-07T13:21:05.423Z,100747.53
2019-05-07T13:23:38.826Z,100731.56
2019-05-07T13:26:12.249Z,100743.00
2019-05-07T13:28:45.644Z,100733.64
2019-05-07T13:31:22.777Z,100733.64
2019-05-07T13:33:56.824Z,100719.23
2019-05-07T13:36:32.426Z,100723.45
2019-05-07T13:39:12.356Z,100724.06
2019-05-07T13:41:47.564Z,100719.32
2019-05-07T13:44:28.646Z,100722.10
2019-05-07T13:47:21.908Z,100715.52
2019-05-07T13:49:55.757Z,100720.50
2019-05-07T13:52:29.435Z,100719.63
2019-05-07T13:55:03.017Z,100715.05
2019-05-07T13:57:36.442Z,100717.47
2019-05-07T14:00:14.025Z,100696.95
2019-05-07T14:02:47.816Z,100696.95
2019-05-07T14:05:21.767Z,100702.63
2019-05-07T14:07:56.005Z,100699.28
2019-05-07T14:10:29.514Z,100686.90
2019-05-07T14:13:12.521Z,100684.95
2019-05-07T14:15:39.979Z,100685.77
2019-05-07T14:18:13.473Z,100680.27
2019-05-07T14:20:46.868Z,100677.38
2019-05-07T14:23:21.727Z,100679.97
2019-05-07T14:25:55.238Z,100675.92
2019-05-07T14:28:28.738Z,100677.50
2019-05-07T14:31:02.229Z,100672.91
2019-05-07T14:33:49.018Z,100664.02
2019-05-07T14:36:32.010Z,100663.18
2019-05-07T14:39:07.471Z,100662.57
2019-05-07T14:41:42.653Z,100662.77
2019-05-07T14:44:18.041Z,100660.13
2019-05-07T14:46:54.310Z,100660.99
2019-05-07T14:49:26.789Z,100661.08
2019-05-07T14:52:00.329Z,100655.02
2019-05-07T14:54:34.538Z,100650.98
2019-05-07T14:57:08.107Z,100653.44
2019-05-07T14:59:42.790Z,100648.59
2019-05-07T15:02:16.419Z,100638.88
2019-05-07T15:04:52.359Z,100641.20
2019-05-07T15:07:25.188Z,100641.30
2019-05-07T15:09:58.695Z,100636.23
2019-05-07T15:12:33.037Z,100587.28
2019-05-07T15:15:07.570Z,100630.47
2019-05-07T15:17:59.375Z,100630.13
2019-05-07T15:20:33.105Z,100628.41
2019-05-07T15:23:08.429Z,100625.37
2019-05-07T15:25:42.490Z,100626.11
2019-05-07T15:28:16.737Z,100624.27
2019-05-07T15:30:55.107Z,100621.09
2019-05-07T15:33:28.945Z,100617.59
2019-05-07T15:36:02.980Z,100621.27
2019-05-07T15:38:36.578Z,100622.42
2019-05-07T15:41:10.119Z,100622.16
2019-05-07T15:43:45.965Z,100614.23
2019-05-07T15:46:18.759Z,100606.77
2019-05-07T15:48:52.672Z,100604.23
2019-05-07T15:51:26.228Z,100600.06
2019-05-07T15:54:00.454Z,100603.08
2019-05-07T15:56:33.898Z,100599.17
2019-05-07T15:59:07.300Z,100590.50
2019-05-07T16:01:41.957Z,100588.72
2019-05-07T16:04:22.266Z,100582.23
2019-05-07T16:06:52.757Z,100585.13
2019-05-07T16:09:27.564Z,100584.34
2019-05-07T16:12:01.514Z,100580.27
2019-05-07T16:14:34.935Z,100573.00
2019-05-07T16:17:10.018Z,100574.80
2019-05-07T16:19:43.529Z,100571.39
2019-05-07T16:22:18.609Z,100563.50
2019-05-07T16:24:52.016Z,100554.77
2019-05-07T16:27:25.452Z,100558.16
2019-05-07T16:29:58.915Z,100553.94
2019-05-07T16:32:32.839Z,100556.07
2019-05-07T16:35:07.144Z,100555.77
2019-05-07T16:37:42.712Z,100553.15
2019-05-07T16:40:16.318Z,100545.64
2019-05-07T16:42:52.213Z,100542.33
2019-05-07T16:45:24.868Z,100551.92
2019-05-07T16:48:00.467Z,100544.99
2019-05-07T16:50:33.565Z,100540.57
2019-05-07T16:53:07.068Z,100541.16
2019-05-07T16:55:40.476Z,100536.11
2019-05-07T16:58:20.579Z,100534.84
2019-05-07T17:00:55.079Z,100530.32
2019-05-07T17:03:31.882Z,100533.36
2019-05-07T17:06:05.415Z,100532.47
2019-05-07T17:08:56.910Z,100532.61
2019-05-07T17:11:32.032Z,100525.89
2019-05-07T17:14:05.683Z,100521.31
2019-05-07T17:16:39.297Z,100527.70
2019-05-07T17:19:14.104Z,100523.42
2019-05-07T17:21:47.622Z,100534.19
2019-05-07T17:24:22.337Z,100529.45
2019-05-07T17:26:55.920Z,100527.92
2019-05-07T17:29:29.332Z,100527.77
2019-05-07T17:32:02.742Z,100529.37
2019-05-07T17:34:36.160Z,100529.37
2019-05-07T17:37:09.554Z,100523.84
2019-05-07T17:39:43.068Z,100522.20
2019-05-07T17:42:16.467Z,100522.14
2019-05-07T17:44:51.753Z,100518.75
2019-05-07T17:47:25.221Z,100509.48
2019-05-07T17:49:58.714Z,100514.66
2019-05-07T17:52:32.432Z,100508.20
2019-05-07T17:55:10.569Z,100511.05
2019-05-07T17:57:44.436Z,100503.75
2019-05-07T18:00:18.590Z,100501.70
2019-05-07T18:03:08.694Z,100504.53
2019-05-07T18:05:42.452Z,100500.63
2019-05-07T18:08:15.974Z,100493.04
2019-05-07T18:10:49.462Z,100486.58
2019-05-07T18:13:22.891Z,100493.38
2019-05-07T18:15:58.022Z,100491.85
2019-05-07T18:18:32.795Z,100487.87
2019-05-07T18:21:06.420Z,100487.78
2019-05-07T18:23:39.885Z,100493.36
2019-05-07T18:26:26.440Z,100490.21
2019-05-07T18:28:48.472Z,100494.27
2019-05-07T18:31:23.644Z,100494.39
2019-05-07T18:33:58.695Z,100490.05
2019-05-07T18:36:32.123Z,100495.09
2019-05-07T18:39:07.504Z,100504.87
2019-05-07T18:41:41.712Z,100500.05
2019-05-07T18:44:16.114Z,100502.36
2019-05-07T18:46:49.797Z,100496.05
2019-05-07T18:49:23.212Z,100499.62
2019-05-07T18:51:56.641Z,100500.55
2019-05-07T18:54:31.467Z,100496.70
2019-05-07T18:57:05.127Z,100507.72
2019-05-07T18:59:38.693Z,100505.15
2019-05-07T19:02:12.156Z,100506.62
2019-05-07T19:04:45.610Z,100505.57
2019-05-07T19:07:19.180Z,100505.28
2019-05-07T19:09:52.850Z,100512.83
2019-05-07T19:12:28.008Z,100511.80
2019-05-07T19:15:02.892Z,100504.14
2019-05-07T19:17:36.946Z,100499.09
2019-05-07T19:20:12.276Z,100498.00
2019-05-07T19:22:45.802Z,100499.55
2019-05-07T19:25:19.229Z,100504.07
2019-05-07T19:27:52.853Z,100497.63
2019-05-07T19:30:26.381Z,100504.25
2019-05-07T19:32:59.833Z,100507.41
2019-05-07T19:35:33.305Z,100510.17
2019-05-07T19:38:06.836Z,100508.59
2019-05-07T19:40:42.017Z,100503.51
2019-05-07T19:43:15.858Z,100502.90
2019-05-07T19:45:49.699Z,100503.91
2019-05-07T19:48:23.797Z,100501.02
2019-05-07T19:50:57.185Z,100498.59
2019-05-07T19:53:32.734Z,100500.59
2019-05-07T19:56:10.715Z,100501.22
2019-05-07T19:58:44.139Z,100498.64
2019-05-07T20:01:19.299Z,100488.50
2019-05-07T20:03:53.026Z,100494.34
2019-05-07T20:06:26.467Z,100492.27
2019-05-07T20:09:11.486Z,100492.89
2019-05-07T20:11:48.305Z,100485.05
2019-05-07T20:14:22.321Z,100483.35
2019-05-07T20:16:55.930Z,100480.14
2019-05-07T20:19:29.474Z,100480.62
2019-05-07T20:22:02.884Z,100479.66
2019-05-07T20:24:36.306Z,100478.91
2019-05-07T20:27:09.693Z,100470.59
2019-05-07T20:29:43.101Z,100468.05
2019-05-07T20:32:16.490Z,100462.62
2019-05-07T20:34:51.918Z,100467.94
2019-05-07T20:37:25.024Z,100464.04
2019-05-07T20:39:58.424Z,100462.14
2019-05-07T20:42:32.448Z,100458.00
2019-05-07T20:45:06.854Z,100455.61
2019-05-07T20:47:42.149Z,100454.87
2019-05-07T20:50:15.487Z,100451.91
2019-05-07T20:52:48.867Z,100445.12
2019-05-07T20:55:38.937Z,100435.14
2019-05-07T20:58:12.884Z,100438.23
2019-05-07T21:00:46.895Z,100438.23
2019-05-07T21:03:20.285Z,100438.10
2019-05-07T21:05:54.056Z,100427.62
2019-05-07T21:08:27.439Z,100430.27
2019-05-07T21:11:02.543Z,100428.59
2019-05-07T21:13:36.060Z,100423.85
2019-05-07T21:16:09.520Z,100417.43
2019-05-07T21:18:43.001Z,100416.59
2019-05-07T21:21:16.425Z,100411.78
2019-05-07T21:23:49.815Z,100405.60
2019-05-07T21:26:23.217Z,100398.58
2019-05-07T21:28:56.628Z,100394.95
2019-05-07T21:31:32.059Z,100401.91
2019-05-07T21:34:05.171Z,100394.95
2019-05-07T21:36:38.667Z,100400.13
2019-05-07T21:39:13.031Z,100396.63
2019-05-07T21:41:46.877Z,100397.47
2019-05-07T21:44:22.755Z,100401.70
2019-05-07T21:46:55.468Z,100399.00
2019-05-07T21:49:28.855Z,100401.62
2019-05-07T21:52:02.256Z,100391.98
2019-05-07T21:54:37.388Z,100390.63
2019-05-07T21:57:28.542Z,100394.42
2019-05-07T22:00:15.352Z,100396.05
2019-05-07T22:02:49.348Z,100397.69
2019-05-07T22:05:22.753Z,100387.96
2019-05-07T22:07:56.238Z,100382.35
2019-05-07T22:10:29.692Z,100377.42
2019-05-07T22:13:03.364Z,100380.45
2019-05-07T22:15:36.877Z,100372.53
2019-05-07T22:18:11.998Z,100374.72
2019-05-07T22:20:45.584Z,100373.84
2019-05-07T22:23:18.998Z,100367.37
2019-05-07T22:25:52.409Z,100361.73
2019-05-07T22:28:25.816Z,100352.19
2019-05-07T22:31:17.028Z,100351.23
2019-05-07T22:33:52.799Z,100347.38
2019-05-07T22:36:26.321Z,100340.02
2019-05-07T22:39:01.840Z,100331.91
2019-05-07T22:41:35.115Z,100330.48
2019-05-07T22:44:08.510Z,100330.52
2019-05-07T22:46:42.299Z,100325.63
2019-05-07T22:49:15.831Z,100318.84
2019-05-07T22:51:49.224Z,100316.81
2019-05-07T22:54:22.773Z,100312.00
2019-05-07T22:56:57.779Z,100301.80
2019-05-07T22:59:32.852Z,100299.61
2019-05-07T23:02:06.423Z,100292.33
2019-05-07T23:04:39.845Z,100290.11
2019-05-07T23:07:13.243Z,100282.69
2019-05-07T23:09:46.635Z,100270.36
2019-05-07T23:12:21.973Z,100263.02
2019-05-07T23:14:55.188Z,100267.11
2019-05-07T23:17:28.580Z,100254.55
2019-05-07T23:20:02.001Z,100253.00
2019-05-07T23:22:35.398Z,100251.33
2019-05-07T23:25:08.878Z,100249.38
2019-05-07T23:27:42.275Z,100242.61
2019-05-07T23:30:16.063Z,100238.79
2019-05-07T23:32:49.452Z,100241.05
2019-05-07T23:35:22.864Z,100239.33
2019-05-07T23:37:56.236Z,100232.86
2019-05-07T23:40:41.870Z,100231.98
2019-05-07T23:43:17.120Z,100235.70
2019-05-07T23:45:52.484Z,100225.11
2019-05-07T23:48:25.633Z,100226.67
2019-05-07T23:50:59.040Z,100231.52
2019-05-07T23:53:32.445Z,100224.02
2019-05-07T23:56:05.857Z,100221.73
2019-05-07T23:58:39.267Z,100227.36
